Terminal Aerodrome Forecast
Issued by NWS Sioux Falls, SD

Home | Current Version | Previous Version | Graphics & Text | Print | Product List | Glossary On
Versions: 1 2 3 4 5 6 7 8 9 10 11 12 13 14 15 16 17 18 19
311
FTUS43 KFSD 241120
TAFFSD
TAF
KFSD 241120Z 2412/2512 14012KT P6SM VCSH BKN050
     FM241400 15013G19KT P6SM VCTS BKN035CB
     FM241700 16014G21KT P6SM SHRA VCTS BKN035CB
     FM242100 16013G19KT P6SM +SHRA VCTS BKN035CB
     FM250000 17009KT P6SM SCT040 BKN120
     FM250400 22008KT P6SM BKN090
     FM250600 27008KT P6SM SKC=

USA.gov is the U.S. government's official web portal to all federal, state and local government web resources and services.